createdAt,value
2023-03-11T00:01:18.339Z,98933.36
2023-03-11T00:03:45.401Z,98928.30
2023-03-11T00:06:14.646Z,98919.84
2023-03-11T00:08:44.169Z,98912.80
2023-03-11T00:11:12.278Z,98911.46
2023-03-11T00:13:45.267Z,98910.04
2023-03-11T00:16:13.256Z,98912.77
2023-03-11T00:18:51.932Z,98914.77
2023-03-11T00:21:19.846Z,98906.11
2023-03-11T00:23:48.350Z,98906.23
2023-03-11T00:26:16.500Z,98897.34
2023-03-11T00:28:48.053Z,98892.26
2023-03-11T00:31:26.332Z,98890.63
2023-03-11T00:34:18.270Z,98878.40
2023-03-11T00:36:48.931Z,98879.23
2023-03-11T00:39:17.376Z,98872.97
2023-03-11T00:41:46.433Z,98869.11
2023-03-11T00:44:17.157Z,98868.58
2023-03-11T00:46:45.606Z,98864.71
2023-03-11T00:49:16.677Z,98858.15
2023-03-11T00:51:44.564Z,98856.18
2023-03-11T00:54:16.916Z,98854.84
2023-03-11T00:56:46.783Z,98850.34
2023-03-11T00:59:18.767Z,98846.48
2023-03-11T01:01:47.409Z,98840.63
2023-03-11T01:04:15.597Z,98836.73
2023-03-11T01:06:45.784Z,98835.66
2023-03-11T01:09:14.669Z,98834.77
2023-03-11T01:11:44.821Z,98832.35
2023-03-11T01:14:12.423Z,98827.31
2023-03-11T01:16:40.305Z,98825.18
2023-03-11T01:19:12.027Z,98821.25
2023-03-11T01:21:43.363Z,98814.95
2023-03-11T01:24:13.142Z,98807.61
2023-03-11T01:26:42.118Z,98804.95
2023-03-11T01:29:09.841Z,98805.85
2023-03-11T01:31:38.018Z,98804.03
2023-03-11T01:34:05.460Z,98799.66
2023-03-11T01:36:35.656Z,98799.20
2023-03-11T01:39:07.342Z,98803.86
2023-03-11T01:41:35.907Z,98797.60
2023-03-11T01:44:05.891Z,98796.86
2023-03-11T01:46:54.493Z,98792.11
2023-03-11T01:49:28.753Z,98786.31
2023-03-11T01:52:03.265Z,98783.23
2023-03-11T01:54:37.063Z,98781.98
2023-03-11T01:57:06.359Z,98784.66
2023-03-11T01:59:40.791Z,98782.40
2023-03-11T02:02:25.514Z,98779.09
2023-03-11T02:04:55.436Z,98777.02
2023-03-11T02:07:25.485Z,98773.83
2023-03-11T02:10:01.662Z,98773.09
2023-03-11T02:12:32.351Z,98771.80
2023-03-11T02:15:01.202Z,98772.86
2023-03-11T02:17:36.101Z,98774.10
2023-03-11T02:20:25.608Z,98768.67
2023-03-11T02:22:56.813Z,98761.80
2023-03-11T02:25:34.275Z,98754.23
2023-03-11T02:28:09.504Z,98746.71
2023-03-11T02:30:42.715Z,98743.16
2023-03-11T02:33:10.822Z,98740.95
2023-03-11T02:35:40.206Z,98742.84
2023-03-11T02:38:09.632Z,98739.42
2023-03-11T02:40:45.366Z,98734.23
2023-03-11T02:43:14.268Z,98731.30
2023-03-11T02:45:45.602Z,98728.38
2023-03-11T02:48:14.080Z,98724.96
2023-03-11T02:50:44.196Z,98717.63
2023-03-11T02:53:13.527Z,98719.92
2023-03-11T02:55:41.213Z,98719.55
2023-03-11T02:58:11.331Z,98719.01
2023-03-11T03:00:39.467Z,98722.08
2023-03-11T03:03:10.350Z,98720.28
2023-03-11T03:05:38.173Z,98720.85
2023-03-11T03:08:08.142Z,98712.15
2023-03-11T03:10:35.635Z,98707.73
2023-03-11T03:13:08.310Z,98705.73
2023-03-11T03:15:39.026Z,98704.58
2023-03-11T03:18:08.787Z,98702.77
2023-03-11T03:20:39.502Z,98702.69
2023-03-11T03:23:09.317Z,98689.30
2023-03-11T03:25:37.465Z,98683.09
2023-03-11T03:28:07.114Z,98674.98
2023-03-11T03:30:39.567Z,98671.30
2023-03-11T03:33:07.003Z,98663.84
2023-03-11T03:35:43.706Z,98658.45
2023-03-11T03:38:22.911Z,98659.02
2023-03-11T03:40:52.482Z,98654.95
2023-03-11T03:43:21.006Z,98649.13
2023-03-11T03:46:01.373Z,98641.77
2023-03-11T03:48:31.936Z,98633.52
2023-03-11T03:51:04.377Z,98632.03
2023-03-11T03:57:00.221Z,98618.02
2023-03-11T03:59:31.162Z,98609.71
2023-03-11T04:02:03.202Z,98607.73
2023-03-11T04:04:35.196Z,98609.05
2023-03-11T04:07:10.431Z,98610.46
2023-03-11T04:09:45.575Z,98617.05
2023-03-11T04:12:14.598Z,98611.13
2023-03-11T04:14:44.802Z,98605.59
2023-03-11T04:17:38.159Z,98600.97
2023-03-11T04:20:08.001Z,98596.45
2023-03-11T04:22:40.079Z,98585.71
2023-03-11T04:25:14.539Z,98577.52
2023-03-11T04:27:51.816Z,98572.76
2023-03-11T04:30:24.457Z,98564.64
2023-03-11T04:33:01.064Z,98554.55
2023-03-11T04:35:30.734Z,98545.53
2023-03-11T04:38:00.796Z,98534.59
2023-03-11T04:40:32.009Z,98531.77
2023-03-11T04:43:08.162Z,98527.16
2023-03-11T04:45:38.425Z,98526.80
2023-03-11T04:48:09.238Z,98523.23
2023-03-11T04:50:36.880Z,98518.17
2023-03-11T04:53:08.197Z,98513.66
2023-03-11T04:55:38.715Z,98502.76
2023-03-11T04:58:10.396Z,98492.02
2023-03-11T05:00:46.749Z,98481.17
2023-03-11T05:03:18.618Z,98478.66
2023-03-11T05:05:48.420Z,98474.09
2023-03-11T05:08:20.544Z,98474.52
2023-03-11T05:10:52.309Z,98471.62
2023-03-11T05:13:30.543Z,98465.70
2023-03-11T05:16:06.719Z,98473.63
2023-03-11T05:18:35.062Z,98470.42
2023-03-11T05:21:15.037Z,98468.90
2023-03-11T05:23:49.375Z,98464.66
2023-03-11T05:26:24.640Z,98472.48
2023-03-11T05:28:59.491Z,98467.52
2023-03-11T05:31:28.665Z,98471.73
2023-03-11T05:34:01.927Z,98472.98
2023-03-11T05:36:34.415Z,98467.20
2023-03-11T05:39:05.403Z,98460.63
2023-03-11T05:41:46.573Z,98456.59
2023-03-11T05:44:17.688Z,98460.68
2023-03-11T05:46:48.107Z,98461.02
2023-03-11T05:49:16.872Z,98464.81
2023-03-11T05:51:52.288Z,98469.27
2023-03-11T05:54:20.664Z,98467.67
2023-03-11T05:56:52.925Z,98471.86
2023-03-11T05:59:23.862Z,98473.55
2023-03-11T06:01:59.092Z,98469.91
2023-03-11T06:04:31.296Z,98472.51
2023-03-11T06:07:01.001Z,98472.23
2023-03-11T06:09:39.290Z,98471.52
2023-03-11T06:12:15.397Z,98464.89
2023-03-11T06:15:07.588Z,98459.36
2023-03-11T06:17:38.694Z,98453.92
2023-03-11T06:20:09.340Z,98452.45
2023-03-11T06:22:45.520Z,98450.32
2023-03-11T06:25:15.838Z,98445.26
2023-03-11T06:27:48.325Z,98443.10
2023-03-11T06:30:20.679Z,98438.25
2023-03-11T06:33:17.433Z,98427.65
2023-03-11T06:36:00.616Z,98416.91
2023-03-11T06:38:32.262Z,98407.18
2023-03-11T06:41:07.689Z,98400.06
2023-03-11T06:43:44.645Z,98400.36
2023-03-11T06:46:22.247Z,98393.79
2023-03-11T06:48:59.142Z,98392.04
2023-03-11T06:51:36.111Z,98385.98
2023-03-11T06:54:10.985Z,98381.16
2023-03-11T06:56:43.840Z,98385.31
2023-03-11T06:59:15.145Z,98385.81
2023-03-11T07:01:47.857Z,98384.58
2023-03-11T07:04:16.888Z,98380.58
2023-03-11T07:06:47.871Z,98370.61
2023-03-11T07:09:27.295Z,98366.23
2023-03-11T07:11:55.869Z,98361.17
2023-03-11T07:14:36.032Z,98360.96
2023-03-11T07:17:10.369Z,98354.95
2023-03-11T07:19:49.409Z,98354.73
2023-03-11T07:22:25.320Z,98350.38
2023-03-11T07:24:58.370Z,98337.42
2023-03-11T07:27:27.528Z,98336.91
2023-03-11T07:30:01.962Z,98332.96
2023-03-11T07:32:34.854Z,98331.95
2023-03-11T07:35:08.236Z,98322.78
2023-03-11T07:37:39.736Z,98323.73
2023-03-11T07:40:13.345Z,98321.80
2023-03-11T07:42:40.780Z,98318.23
2023-03-11T07:45:14.040Z,98318.16
2023-03-11T07:47:49.648Z,98310.46
2023-03-11T07:50:18.764Z,98310.60
2023-03-11T16:14:43.933Z,97687.27
2023-03-11T16:17:19.403Z,97686.73
2023-03-11T16:20:21.509Z,97683.23
2023-03-11T16:22:54.839Z,97680.88
2023-03-11T16:25:38.511Z,97677.96
2023-03-11T16:28:15.257Z,97683.29
2023-03-11T16:30:49.596Z,97677.60
2023-03-11T16:33:25.279Z,97670.48
2023-03-11T16:36:02.623Z,97674.33
2023-03-11T16:38:43.561Z,97673.91
2023-03-11T16:41:43.417Z,97668.68
2023-03-11T16:45:04.187Z,97659.38
2023-03-11T16:48:00.513Z,97653.78
2023-03-11T16:50:42.438Z,97650.52
2023-03-11T16:53:23.706Z,97652.81
2023-03-11T16:55:59.898Z,97650.64
2023-03-11T16:58:28.260Z,97645.36
2023-03-11T17:01:00.997Z,97646.42
2023-03-11T17:03:42.780Z,97655.55
2023-03-11T17:06:14.379Z,97654.59
2023-03-11T17:08:53.154Z,97653.20
2023-03-11T17:11:30.240Z,97654.17
2023-03-11T17:14:13.628Z,97656.36
2023-03-11T17:16:51.362Z,97660.70
2023-03-11T17:19:24.215Z,97653.77
2023-03-11T17:21:52.896Z,97649.25
2023-03-11T17:24:27.736Z,97646.59
2023-03-11T17:26:59.571Z,97646.85
2023-03-11T17:29:32.321Z,97648.95
2023-03-11T17:32:05.584Z,97647.30
2023-03-11T17:34:36.684Z,97641.25
2023-03-11T17:37:11.861Z,97638.58
2023-03-11T17:39:45.629Z,97633.55
2023-03-11T17:42:17.084Z,97631.71
2023-03-11T17:44:52.078Z,97624.99
2023-03-11T17:47:25.431Z,97620.78
2023-03-11T17:49:57.596Z,97615.09
2023-03-11T17:52:31.085Z,97606.98
2023-03-11T17:55:02.813Z,97604.49
2023-03-11T17:57:45.565Z,97605.15
2023-03-11T18:00:19.479Z,97600.77
2023-03-11T18:02:57.986Z,97594.14
2023-03-11T18:05:29.202Z,97588.66
2023-03-11T18:08:01.994Z,97587.42
2023-03-11T18:10:32.129Z,97580.43
2023-03-11T18:13:00.782Z,97580.52
2023-03-11T18:15:31.635Z,97580.73
2023-03-11T18:18:05.325Z,97584.27
2023-03-11T18:20:39.482Z,97592.79
2023-03-11T18:23:11.309Z,97591.40
2023-03-11T18:25:42.846Z,97585.10
2023-03-11T18:28:12.564Z,97584.60
2023-03-11T18:30:44.594Z,97585.95
2023-03-11T18:33:17.120Z,97581.04
2023-03-11T18:35:49.246Z,97583.98
2023-03-11T18:38:26.045Z,97580.02
2023-03-11T18:41:03.404Z,97579.95
2023-03-11T18:43:31.244Z,97578.04
2023-03-11T18:46:03.198Z,97573.78
2023-03-11T18:48:33.506Z,97573.98
2023-03-11T18:51:07.029Z,97571.78
2023-03-11T18:53:37.155Z,97574.95
2023-03-11T18:56:16.191Z,97570.53
2023-03-11T18:58:47.316Z,97569.96
2023-03-11T19:01:44.161Z,97565.73
2023-03-11T19:04:12.874Z,97568.08
2023-03-11T19:07:04.623Z,97564.89
2023-03-11T19:09:47.414Z,97562.35
2023-03-11T19:12:20.347Z,97563.42
2023-03-11T19:14:56.652Z,97562.14
2023-03-11T19:17:26.692Z,97564.84
2023-03-11T19:19:59.052Z,97565.38
2023-03-11T19:22:35.933Z,97558.08
2023-03-11T19:25:05.996Z,97563.08
2023-03-11T19:27:40.359Z,97566.85
2023-03-11T19:30:09.564Z,97570.12
2023-03-11T19:32:38.815Z,97573.64
2023-03-11T19:35:13.748Z,97578.62
2023-03-11T19:38:13.164Z,97582.95
2023-03-11T19:40:46.564Z,97585.24
2023-03-11T19:43:17.937Z,97581.70
2023-03-11T19:46:13.435Z,97581.30
2023-03-11T19:49:00.454Z,97575.40
2023-03-11T19:51:50.021Z,97575.59
2023-03-11T19:54:26.430Z,97572.52
2023-03-11T19:57:21.246Z,97572.65
2023-03-11T20:00:00.826Z,97566.92
2023-03-11T20:02:34.470Z,97567.53
2023-03-11T20:05:07.820Z,97569.84
2023-03-11T20:07:40.906Z,97572.12
2023-03-11T20:10:17.527Z,97577.52
2023-03-11T20:13:01.460Z,97572.60
2023-03-11T20:15:30.637Z,97577.60
2023-03-11T20:18:09.942Z,97577.77
2023-03-11T20:20:43.128Z,97574.70
2023-03-11T20:23:18.170Z,97571.30
2023-03-11T20:25:51.330Z,97571.43
2023-03-11T20:28:20.123Z,97565.67
2023-03-11T20:30:55.068Z,97566.93
2023-03-11T20:33:25.907Z,97562.97
2023-03-11T20:36:04.408Z,97560.31
2023-03-11T20:38:39.205Z,97562.02
2023-03-11T20:41:09.292Z,97562.77
2023-03-11T20:43:38.798Z,97560.67
2023-03-11T20:46:07.529Z,97558.34
2023-03-11T20:48:41.083Z,97559.38
2023-03-11T20:51:28.156Z,97559.58
2023-03-11T20:54:07.822Z,97560.02
2023-03-11T20:56:37.791Z,97558.23
2023-03-11T20:59:10.581Z,97552.17
2023-03-11T21:01:51.975Z,97545.19
2023-03-11T21:04:26.000Z,97547.77
2023-03-11T21:07:00.785Z,97541.67
2023-03-11T21:09:35.221Z,97534.20
2023-03-11T21:12:31.124Z,97534.19
2023-03-11T21:15:06.165Z,97530.71
2023-03-11T21:17:39.471Z,97529.83
2023-03-11T21:20:12.176Z,97529.77
2023-03-11T21:23:08.328Z,97527.36
2023-03-11T21:25:44.161Z,97526.61
2023-03-11T21:28:47.899Z,97534.84
2023-03-11T21:31:22.426Z,97546.02
2023-03-11T21:34:07.475Z,97548.04
2023-03-11T21:36:41.924Z,97555.10
2023-03-11T21:39:09.628Z,97553.45
2023-03-11T21:41:38.271Z,97551.04
2023-03-11T21:44:12.209Z,97551.27
2023-03-11T21:46:44.153Z,97551.98
2023-03-11T21:49:14.108Z,97556.20
2023-03-11T21:51:42.977Z,97559.91
2023-03-11T21:54:15.330Z,97562.99
2023-03-11T21:56:52.039Z,97563.60
2023-03-11T21:59:22.479Z,97561.34
2023-03-11T22:02:02.587Z,97561.29
2023-03-11T22:04:35.797Z,97570.77
2023-03-11T22:07:04.675Z,97577.05
2023-03-11T22:09:37.656Z,97576.39
2023-03-11T22:12:09.230Z,97578.80
2023-03-11T22:14:44.659Z,97577.16
2023-03-11T22:17:17.991Z,97580.64
2023-03-11T22:19:46.970Z,97583.56
2023-03-11T22:22:25.650Z,97585.34
2023-03-11T22:24:55.725Z,97593.67
2023-03-11T22:27:23.840Z,97601.09
2023-03-11T22:30:17.086Z,97599.36
2023-03-11T22:32:51.073Z,97606.20
2023-03-11T22:35:20.670Z,97604.70
2023-03-11T22:37:48.426Z,97614.62
2023-03-11T22:40:31.253Z,97616.92
2023-03-11T22:43:00.595Z,97613.50
2023-03-11T22:45:31.750Z,97621.27
2023-03-11T22:47:59.547Z,97615.00
2023-03-11T22:50:34.462Z,97614.34
2023-03-11T22:53:08.374Z,97612.52
2023-03-11T22:55:43.342Z,97614.63
2023-03-11T22:58:34.338Z,97622.00
2023-03-11T23:01:03.826Z,97631.55
2023-03-11T23:03:34.531Z,97644.83
2023-03-11T23:06:07.651Z,97649.11
2023-03-11T23:08:34.931Z,97668.33
2023-03-11T23:11:22.968Z,97658.20
2023-03-11T23:13:53.896Z,97654.80
2023-03-11T23:16:25.627Z,97656.16
2023-03-11T23:18:54.442Z,97669.83
2023-03-11T23:21:30.512Z,97669.23
2023-03-11T23:24:00.316Z,97676.05
2023-03-11T23:26:30.797Z,97676.91
2023-03-11T23:29:00.513Z,97679.04
2023-03-11T23:31:30.199Z,97678.06
2023-03-11T23:39:02.871Z,97654.23
2023-03-11T23:41:37.262Z,97663.23
2023-03-11T23:44:04.681Z,97655.86
2023-03-11T23:46:34.590Z,97648.33
2023-03-11T23:49:31.268Z,97662.94
2023-03-11T23:52:01.732Z,97656.84
2023-03-11T23:54:30.708Z,97656.19
2023-03-11T23:57:02.794Z,97652.48
2023-03-11T23:59:36.592Z,97651.48
